sensor_id;sensor_type;location;lat;lon;timestamp;pressure;altitude;pressure_sealevel;temperature;humidity
45327;BME280;31062;49.678;24.560;2023-04-07T00:02:04;97680.00;;;2.14;92.65
45327;BME280;31062;49.678;24.560;2023-04-07T00:04:49;97710.69;;;2.20;92.52
45327;BME280;31062;49.678;24.560;2023-04-07T00:07:35;97637.56;;;1.99;92.34
45327;BME280;31062;49.678;24.560;2023-04-07T00:10:29;97588.16;;;1.43;92.25
45327;BME280;31062;49.678;24.560;2023-04-07T00:13:14;97663.63;;;2.21;92.16
45327;BME280;31062;49.678;24.560;2023-04-07T00:16:00;97643.50;;;2.11;92.35
45327;BME280;31062;49.678;24.560;2023-04-07T00:18:46;97636.91;;;2.07;91.51
45327;BME280;31062;49.678;24.560;2023-04-07T00:21:31;97604.19;;;1.80;91.66
45327;BME280;31062;49.678;24.560;2023-04-07T00:24:17;97684.28;;;2.43;92.13
45327;BME280;31062;49.678;24.560;2023-04-07T00:27:17;97681.94;;;2.47;91.79
45327;BME280;31062;49.678;24.560;2023-04-07T00:30:03;97677.94;;;2.48;91.79
45327;BME280;31062;49.678;24.560;2023-04-07T00:32:49;97686.41;;;2.58;91.70
45327;BME280;31062;49.678;24.560;2023-04-07T00:35:36;97687.34;;;2.60;91.31
45327;BME280;31062;49.678;24.560;2023-04-07T00:38:21;97568.47;;;1.78;90.52
45327;BME280;31062;49.678;24.560;2023-04-07T00:41:07;97491.03;;;1.21;90.49
45327;BME280;31062;49.678;24.560;2023-04-07T00:43:52;97648.78;;;2.30;90.43
45327;BME280;31062;49.678;24.560;2023-04-07T00:46:38;97675.88;;;2.41;90.88
45327;BME280;31062;49.678;24.560;2023-04-07T00:49:25;97492.84;;;1.18;90.71
45327;BME280;31062;49.678;24.560;2023-04-07T00:52:13;97498.72;;;1.22;90.56
45327;BME280;31062;49.678;24.560;2023-04-07T00:54:59;97677.72;;;2.25;90.97
45327;BME280;31062;49.678;24.560;2023-04-07T00:57:45;97559.25;;;1.68;90.68
45327;BME280;31062;49.678;24.560;2023-04-07T01:00:35;97700.81;;;2.58;91.16
45327;BME280;31062;49.678;24.560;2023-04-07T01:03:35;97526.13;;;1.51;90.50
45327;BME280;31062;49.678;24.560;2023-04-07T01:06:25;97720.56;;;2.64;90.70
45327;BME280;31062;49.678;24.560;2023-04-07T01:09:21;97492.59;;;1.30;90.75
45327;BME280;31062;49.678;24.560;2023-04-07T01:12:24;97675.72;;;2.67;90.81
45327;BME280;31062;49.678;24.560;2023-04-07T01:15:15;97690.22;;;2.55;90.52
45327;BME280;31062;49.678;24.560;2023-04-07T01:18:18;97529.13;;;1.81;89.94
45327;BME280;31062;49.678;24.560;2023-04-07T01:21:07;97665.06;;;2.56;89.74
45327;BME280;31062;49.678;24.560;2023-04-07T01:24:10;97497.00;;;1.74;89.29
45327;BME280;31062;49.678;24.560;2023-04-07T01:27:20;97524.22;;;2.00;88.95
45327;BME280;31062;49.678;24.560;2023-04-07T01:30:09;97587.13;;;2.29;88.55
45327;BME280;31062;49.678;24.560;2023-04-07T01:32:58;97693.94;;;3.14;88.76
45327;BME280;31062;49.678;24.560;2023-04-07T01:35:45;97697.28;;;3.20;88.56
45327;BME280;31062;49.678;24.560;2023-04-07T01:38:31;97518.75;;;2.00;88.15
45327;BME280;31062;49.678;24.560;2023-04-07T01:41:17;97511.19;;;1.93;87.67
45327;BME280;31062;49.678;24.560;2023-04-07T01:44:06;97714.09;;;3.24;87.61
45327;BME280;31062;49.678;24.560;2023-04-07T01:46:52;97682.88;;;2.99;87.45
45327;BME280;31062;49.678;24.560;2023-04-07T01:49:39;97688.63;;;3.08;87.25
45327;BME280;31062;49.678;24.560;2023-04-07T01:52:25;97564.81;;;2.17;87.36
45327;BME280;31062;49.678;24.560;2023-04-07T01:55:12;97679.44;;;2.77;87.15
45327;BME280;31062;49.678;24.560;2023-04-07T01:58:10;97678.81;;;2.92;87.02
45327;BME280;31062;49.678;24.560;2023-04-07T02:00:59;97752.72;;;3.13;86.71
45327;BME280;31062;49.678;24.560;2023-04-07T02:06:56;97749.41;;;3.07;86.91
45327;BME280;31062;49.678;24.560;2023-04-07T02:09:55;97508.00;;;1.61;86.91
45327;BME280;31062;49.678;24.560;2023-04-07T02:12:43;97702.91;;;2.94;86.93
45327;BME280;31062;49.678;24.560;2023-04-07T02:15:35;97600.59;;;2.27;86.87
45327;BME280;31062;49.678;24.560;2023-04-07T02:18:21;97707.50;;;2.99;86.92
45327;BME280;31062;49.678;24.560;2023-04-07T02:21:07;97715.56;;;2.97;86.84
45327;BME280;31062;49.678;24.560;2023-04-07T02:23:55;97690.31;;;2.91;87.09
45327;BME280;31062;49.678;24.560;2023-04-07T02:26:41;97544.22;;;1.95;86.73
45327;BME280;31062;49.678;24.560;2023-04-07T02:29:27;97701.91;;;3.04;86.97
45327;BME280;31062;49.678;24.560;2023-04-07T02:32:12;97691.16;;;3.06;86.82
45327;BME280;31062;49.678;24.560;2023-04-07T02:34:58;97541.66;;;1.97;86.52
45327;BME280;31062;49.678;24.560;2023-04-07T02:37:44;97697.88;;;3.05;86.68
45327;BME280;31062;49.678;24.560;2023-04-07T02:40:30;97620.81;;;2.44;86.50
45327;BME280;31062;49.678;24.560;2023-04-07T02:43:16;97517.00;;;1.69;86.32
45327;BME280;31062;49.678;24.560;2023-04-07T02:46:03;97489.34;;;1.52;86.41
45327;BME280;31062;49.678;24.560;2023-04-07T02:48:48;97701.69;;;2.74;86.69
45327;BME280;31062;49.678;24.560;2023-04-07T02:51:35;97519.69;;;1.82;86.35
45327;BME280;31062;49.678;24.560;2023-04-07T02:54:20;97707.06;;;3.08;86.18
45327;BME280;31062;49.678;24.560;2023-04-07T02:57:05;97525.34;;;1.84;86.24
45327;BME280;31062;49.678;24.560;2023-04-07T02:59:51;97532.13;;;1.91;86.10
45327;BME280;31062;49.678;24.560;2023-04-07T03:02:36;97671.53;;;2.95;85.95
45327;BME280;31062;49.678;24.560;2023-04-07T03:05:22;97574.34;;;2.24;85.68
45327;BME280;31062;49.678;24.560;2023-04-07T03:08:08;97706.06;;;3.26;86.22
45327;BME280;31062;49.678;24.560;2023-04-07T03:10:57;97743.91;;;3.27;85.83
45327;BME280;31062;49.678;24.560;2023-04-07T03:13:45;97750.88;;;3.36;85.54
45327;BME280;31062;49.678;24.560;2023-04-07T03:16:32;97759.84;;;3.37;85.36
45327;BME280;31062;49.678;24.560;2023-04-07T03:19:23;97722.75;;;3.36;85.33
45327;BME280;31062;49.678;24.560;2023-04-07T03:22:09;97544.72;;;2.15;85.11
45327;BME280;31062;49.678;24.560;2023-04-07T03:25:02;97549.72;;;2.03;85.12
45327;BME280;31062;49.678;24.560;2023-04-07T03:27:48;97644.56;;;2.50;84.57
45327;BME280;31062;49.678;24.560;2023-04-07T03:30:34;97749.50;;;3.22;85.46
45327;BME280;31062;49.678;24.560;2023-04-07T03:33:19;97758.94;;;3.13;85.11
45327;BME280;31062;49.678;24.560;2023-04-07T03:36:05;97540.06;;;1.81;84.83
45327;BME280;31062;49.678;24.560;2023-04-07T03:38:52;97694.06;;;2.80;85.40
45327;BME280;31062;49.678;24.560;2023-04-07T03:41:38;97731.09;;;3.02;85.28
45327;BME280;31062;49.678;24.560;2023-04-07T03:44:24;97534.06;;;1.62;85.51
45327;BME280;31062;49.678;24.560;2023-04-07T03:47:09;97557.47;;;1.71;85.56
45327;BME280;31062;49.678;24.560;2023-04-07T03:49:56;97586.28;;;1.92;85.99
45327;BME280;31062;49.678;24.560;2023-04-07T03:52:41;97737.25;;;2.95;86.23
45327;BME280;31062;49.678;24.560;2023-04-07T03:55:38;97740.28;;;3.12;86.33
45327;BME280;31062;49.678;24.560;2023-04-07T03:58:31;97631.69;;;2.37;85.97
45327;BME280;31062;49.678;24.560;2023-04-07T04:01:17;97673.44;;;2.58;85.60
45327;BME280;31062;49.678;24.560;2023-04-07T04:04:05;97416.16;;;0.96;85.40
45327;BME280;31062;49.678;24.560;2023-04-07T04:06:52;97717.41;;;3.02;85.53
45327;BME280;31062;49.678;24.560;2023-04-07T04:09:43;97767.09;;;3.34;85.49
45327;BME280;31062;49.678;24.560;2023-04-07T04:12:29;97784.50;;;3.37;85.40
45327;BME280;31062;49.678;24.560;2023-04-07T04:15:24;97576.75;;;2.07;85.16
45327;BME280;31062;49.678;24.560;2023-04-07T04:18:13;97762.34;;;3.27;85.62
45327;BME280;31062;49.678;24.560;2023-04-07T04:20:59;97735.94;;;3.16;85.52
45327;BME280;31062;49.678;24.560;2023-04-07T04:23:45;97719.19;;;2.99;85.32
45327;BME280;31062;49.678;24.560;2023-04-07T04:26:31;97601.59;;;2.16;85.28
45327;BME280;31062;49.678;24.560;2023-04-07T04:29:22;97614.09;;;2.25;85.07
45327;BME280;31062;49.678;24.560;2023-04-07T04:32:10;97588.41;;;2.07;85.16
45327;BME280;31062;49.678;24.560;2023-04-07T04:34:56;97781.00;;;3.36;85.13
45327;BME280;31062;49.678;24.560;2023-04-07T04:37:42;97730.72;;;2.98;84.93
45327;BME280;31062;49.678;24.560;2023-04-07T04:40:29;97790.91;;;3.39;85.27
45327;BME280;31062;49.678;24.560;2023-04-07T04:43:16;97628.38;;;2.31;85.10
45327;BME280;31062;49.678;24.560;2023-04-07T04:46:02;97607.41;;;2.13;85.18
45327;BME280;31062;49.678;24.560;2023-04-07T04:48:52;97667.06;;;2.56;84.85
45327;BME280;31062;49.678;24.560;2023-04-07T04:51:40;97808.13;;;3.47;85.33
45327;BME280;31062;49.678;24.560;2023-04-07T04:54:33;97810.13;;;3.47;85.02
45327;BME280;31062;49.678;24.560;2023-04-07T04:57:22;97655.75;;;2.38;84.55
45327;BME280;31062;49.678;24.560;2023-04-07T05:00:09;97790.13;;;3.31;85.24
45327;BME280;31062;49.678;24.560;2023-04-07T05:03:06;97817.59;;;3.46;84.63
45327;BME280;31062;49.678;24.560;2023-04-07T05:05:58;97823.09;;;3.46;84.79
45327;BME280;31062;49.678;24.560;2023-04-07T05:08:43;97615.75;;;2.07;84.24
45327;BME280;31062;49.678;24.560;2023-04-07T05:11:31;97814.97;;;3.33;84.43
45327;BME280;31062;49.678;24.560;2023-04-07T05:14:17;97685.75;;;2.44;84.61
45327;BME280;31062;49.678;24.560;2023-04-07T05:17:09;97784.78;;;3.05;84.71
45327;BME280;31062;49.678;24.560;2023-04-07T05:19:55;97830.72;;;3.40;84.58
45327;BME280;31062;49.678;24.560;2023-04-07T05:22:52;97835.88;;;3.44;85.02
45327;BME280;31062;49.678;24.560;2023-04-07T05:25:42;97828.41;;;3.44;84.82
45327;BME280;31062;49.678;24.560;2023-04-07T05:28:28;97864.28;;;3.33;84.91
45327;BME280;31062;49.678;24.560;2023-04-07T05:31:17;97614.47;;;1.87;84.63
45327;BME280;31062;49.678;24.560;2023-04-07T05:34:05;97680.13;;;2.29;85.04
45327;BME280;31062;49.678;24.560;2023-04-07T05:36:56;97852.63;;;3.40;85.23
45327;BME280;31062;49.678;24.560;2023-04-07T05:39:42;97810.03;;;3.11;85.17
45327;BME280;31062;49.678;24.560;2023-04-07T05:42:30;97645.97;;;2.01;85.29
45327;BME280;31062;49.678;24.560;2023-04-07T05:45:16;97667.84;;;2.01;85.22
45327;BME280;31062;49.678;24.560;2023-04-07T05:48:04;97857.34;;;3.32;85.51
45327;BME280;31062;49.678;24.560;2023-04-07T05:50:59;97825.88;;;3.05;85.62
45327;BME280;31062;49.678;24.560;2023-04-07T05:53:44;97869.78;;;3.33;85.80
45327;BME280;31062;49.678;24.560;2023-04-07T05:56:30;97859.13;;;3.29;85.89
45327;BME280;31062;49.678;24.560;2023-04-07T05:59:17;97730.19;;;2.37;85.69
45327;BME280;31062;49.678;24.560;2023-04-07T06:02:03;97670.41;;;1.86;85.77
45327;BME280;31062;49.678;24.560;2023-04-07T06:04:49;97823.81;;;2.98;86.62
45327;BME280;31062;49.678;24.560;2023-04-07T06:07:37;97896.75;;;3.29;86.72
45327;BME280;31062;49.678;24.560;2023-04-07T06:10:22;97730.00;;;2.22;86.29
45327;BME280;31062;49.678;24.560;2023-04-07T06:13:08;97821.78;;;2.77;86.65
45327;BME280;31062;49.678;24.560;2023-04-07T06:15:56;97674.94;;;1.84;86.59
45327;BME280;31062;49.678;24.560;2023-04-07T06:18:42;97670.84;;;1.77;86.77
45327;BME280;31062;49.678;24.560;2023-04-07T06:21:27;97878.06;;;3.20;87.12
45327;BME280;31062;49.678;24.560;2023-04-07T06:24:13;97850.94;;;3.09;87.52
45327;BME280;31062;49.678;24.560;2023-04-07T06:26:59;97883.59;;;3.27;87.90
45327;BME280;31062;49.678;24.560;2023-04-07T06:29:45;97896.75;;;3.29;87.79
45327;BME280;31062;49.678;24.560;2023-04-07T06:32:31;97857.88;;;3.10;87.53
45327;BME280;31062;49.678;24.560;2023-04-07T06:35:18;97686.16;;;1.93;87.66
45327;BME280;31062;49.678;24.560;2023-04-07T06:38:03;97824.47;;;2.91;87.78
45327;BME280;31062;49.678;24.560;2023-04-07T06:40:51;97922.22;;;3.37;87.91
45327;BME280;31062;49.678;24.560;2023-04-07T06:43:38;97897.22;;;3.41;87.50
45327;BME280;31062;49.678;24.560;2023-04-07T06:46:44;97715.94;;;2.18;87.37
45327;BME280;31062;49.678;24.560;2023-04-07T06:49:32;97897.28;;;3.48;87.50
45327;BME280;31062;49.678;24.560;2023-04-07T06:52:20;97700.78;;;2.17;86.98
45327;BME280;31062;49.678;24.560;2023-04-07T06:55:20;97905.84;;;3.65;86.56
45327;BME280;31062;49.678;24.560;2023-04-07T06:58:05;97858.41;;;3.29;85.91
45327;BME280;31062;49.678;24.560;2023-04-07T07:00:51;97897.50;;;3.50;86.00
45327;BME280;31062;49.678;24.560;2023-04-07T07:03:36;97934.50;;;3.64;85.19
45327;BME280;31062;49.678;24.560;2023-04-07T07:06:22;97919.22;;;3.48;84.83
45327;BME280;31062;49.678;24.560;2023-04-07T07:09:08;97922.75;;;3.56;85.08
45327;BME280;31062;49.678;24.560;2023-04-07T07:11:54;97959.06;;;3.49;85.03
45327;BME280;31062;49.678;24.560;2023-04-07T07:14:40;97925.78;;;3.45;85.03
45327;BME280;31062;49.678;24.560;2023-04-07T07:17:26;97935.31;;;3.52;85.06
45327;BME280;31062;49.678;24.560;2023-04-07T07:20:12;97786.44;;;2.45;85.14
45327;BME280;31062;49.678;24.560;2023-04-07T07:22:57;97969.69;;;3.53;85.22
45327;BME280;31062;49.678;24.560;2023-04-07T07:25:44;97825.78;;;2.76;85.13
45327;BME280;31062;49.678;24.560;2023-04-07T07:28:30;97864.53;;;3.01;85.62
45327;BME280;31062;49.678;24.560;2023-04-07T07:31:15;97908.97;;;3.28;85.23
45327;BME280;31062;49.678;24.560;2023-04-07T07:34:03;97916.13;;;3.31;85.16
45327;BME280;31062;49.678;24.560;2023-04-07T07:36:59;97953.31;;;3.60;84.80
45327;BME280;31062;49.678;24.560;2023-04-07T07:40:14;97894.53;;;3.07;84.73
45327;BME280;31062;49.678;24.560;2023-04-07T07:43:00;97966.66;;;3.64;84.90
45327;BME280;31062;49.678;24.560;2023-04-07T07:45:46;97878.16;;;2.94;84.88
45327;BME280;31062;49.678;24.560;2023-04-07T07:48:32;97983.66;;;3.62;84.36
45327;BME280;31062;49.678;24.560;2023-04-07T07:51:18;97911.19;;;3.09;84.41
45327;BME280;31062;49.678;24.560;2023-04-07T07:54:04;97987.28;;;3.57;83.83
45327;BME280;31062;49.678;24.560;2023-04-07T07:56:52;97967.41;;;3.44;83.62
45327;BME280;31062;49.678;24.560;2023-04-07T07:59:37;97978.03;;;3.47;83.58
45327;BME280;31062;49.678;24.560;2023-04-07T08:02:25;97841.06;;;2.38;83.42
45327;BME280;31062;49.678;24.560;2023-04-07T08:05:15;97991.13;;;3.41;83.77
45327;BME280;31062;49.678;24.560;2023-04-07T08:08:00;98002.09;;;3.41;83.77
45327;BME280;31062;49.678;24.560;2023-04-07T08:10:47;97971.19;;;3.20;83.46
45327;BME280;31062;49.678;24.560;2023-04-07T08:13:34;98000.09;;;3.42;83.43
45327;BME280;31062;49.678;24.560;2023-04-07T08:16:25;98006.31;;;3.42;83.42
45327;BME280;31062;49.678;24.560;2023-04-07T08:19:12;97968.03;;;3.16;83.15
45327;BME280;31062;49.678;24.560;2023-04-07T08:21:58;97997.25;;;3.34;83.20
45327;BME280;31062;49.678;24.560;2023-04-07T08:24:44;98009.25;;;3.44;83.08
45327;BME280;31062;49.678;24.560;2023-04-07T08:27:31;98021.13;;;3.47;82.90
45327;BME280;31062;49.678;24.560;2023-04-07T08:30:17;98012.38;;;3.48;82.78
45327;BME280;31062;49.678;24.560;2023-04-07T08:33:04;98010.91;;;3.47;82.46
45327;BME280;31062;49.678;24.560;2023-04-07T08:35:51;98016.59;;;3.49;82.64
45327;BME280;31062;49.678;24.560;2023-04-07T08:38:37;97832.88;;;2.25;81.98
45327;BME280;31062;49.678;24.560;2023-04-07T08:41:32;98038.28;;;3.60;81.84
45327;BME280;31062;49.678;24.560;2023-04-07T08:44:21;97885.41;;;2.57;81.77
45327;BME280;31062;49.678;24.560;2023-04-07T08:47:08;98039.22;;;3.63;81.62
45327;BME280;31062;49.678;24.560;2023-04-07T08:50:06;98030.06;;;3.60;80.89
45327;BME280;31062;49.678;24.560;2023-04-07T08:52:55;97980.91;;;3.08;81.10
45327;BME280;31062;49.678;24.560;2023-04-07T08:55:41;98038.16;;;3.66;80.82
45327;BME280;31062;49.678;24.560;2023-04-07T08:58:28;98035.94;;;3.64;80.82
45327;BME280;31062;49.678;24.560;2023-04-07T09:01:15;98048.91;;;3.64;80.92
45327;BME280;31062;49.678;24.560;2023-04-07T09:04:06;97987.81;;;3.22;80.88
45327;BME280;31062;49.678;24.560;2023-04-07T09:06:52;98053.47;;;3.61;80.93
45327;BME280;31062;49.678;24.560;2023-04-07T09:09:41;97958.38;;;3.02;80.83
45327;BME280;31062;49.678;24.560;2023-04-07T09:12:29;98049.84;;;3.66;80.57
45327;BME280;31062;49.678;24.560;2023-04-07T09:15:15;97998.53;;;3.33;80.25
45327;BME280;31062;49.678;24.560;2023-04-07T09:18:01;97984.28;;;3.14;79.74
45327;BME280;31062;49.678;24.560;2023-04-07T09:23:44;98074.66;;;3.61;79.33
45327;BME280;31062;49.678;24.560;2023-04-07T09:26:30;98073.50;;;3.56;79.16
45327;BME280;31062;49.678;24.560;2023-04-07T09:29:19;97962.66;;;2.76;79.42
45327;BME280;31062;49.678;24.560;2023-04-07T09:32:05;98074.16;;;3.49;79.55
45327;BME280;31062;49.678;24.560;2023-04-07T09:34:57;97888.75;;;2.16;79.24
45327;BME280;31062;49.678;24.560;2023-04-07T09:37:44;98046.94;;;3.17;79.80
45327;BME280;31062;49.678;24.560;2023-04-07T09:40:32;98098.63;;;3.47;79.62
45327;BME280;31062;49.678;24.560;2023-04-07T09:43:19;98071.69;;;3.25;79.45
45327;BME280;31062;49.678;24.560;2023-04-07T09:49:01;97937.66;;;2.33;79.51
45327;BME280;31062;49.678;24.560;2023-04-07T09:51:56;98119.28;;;3.35;79.39
45327;BME280;31062;49.678;24.560;2023-04-07T09:54:42;97881.09;;;1.88;79.79
45327;BME280;31062;49.678;24.560;2023-04-07T09:57:28;98054.03;;;3.00;79.59
45327;BME280;31062;49.678;24.560;2023-04-07T10:00:15;98111.81;;;3.22;79.33
45327;BME280;31062;49.678;24.560;2023-04-07T10:03:03;98003.53;;;2.48;79.85
45327;BME280;31062;49.678;24.560;2023-04-07T10:05:51;98108.38;;;3.09;80.31
45327;BME280;31062;49.678;24.560;2023-04-07T10:08:41;98111.22;;;3.03;80.61
45327;BME280;31062;49.678;24.560;2023-04-07T10:11:27;98113.00;;;3.01;80.88
45327;BME280;31062;49.678;24.560;2023-04-07T10:14:14;98121.75;;;2.99;81.09
45327;BME280;31062;49.678;24.560;2023-04-07T10:17:03;98105.00;;;2.90;81.44
45327;BME280;31062;49.678;24.560;2023-04-07T10:19:50;98069.41;;;2.63;81.66
45327;BME280;31062;49.678;24.560;2023-04-07T10:22:37;98123.22;;;3.00;81.29
45327;BME280;31062;49.678;24.560;2023-04-07T10:25:24;98119.97;;;3.02;81.52
45327;BME280;31062;49.678;24.560;2023-04-07T10:28:11;98133.88;;;3.04;81.66
45327;BME280;31062;49.678;24.560;2023-04-07T10:30:58;98086.34;;;2.75;81.27
45327;BME280;31062;49.678;24.560;2023-04-07T10:33:47;98101.84;;;2.72;81.18
45327;BME280;31062;49.678;24.560;2023-04-07T10:36:33;97892.31;;;1.27;81.23
45327;BME280;31062;49.678;24.560;2023-04-07T10:39:20;97937.25;;;1.57;81.41
45327;BME280;31062;49.678;24.560;2023-04-07T10:42:06;98146.94;;;2.98;81.52
45327;BME280;31062;49.678;24.560;2023-04-07T10:44:53;98170.31;;;2.99;81.57
45327;BME280;31062;49.678;24.560;2023-04-07T10:54:19;98147.66;;;2.98;82.08
45327;BME280;31062;49.678;24.560;2023-04-07T10:57:12;98151.13;;;2.99;82.22
45327;BME280;31062;49.678;24.560;2023-04-07T11:03:09;98145.88;;;3.01;82.38
45327;BME280;31062;49.678;24.560;2023-04-07T11:06:08;98162.94;;;2.94;82.17
45327;BME280;31062;49.678;24.560;2023-04-07T11:08:55;98074.66;;;2.48;81.64
45327;BME280;31062;49.678;24.560;2023-04-07T11:11:44;98160.19;;;3.07;82.46
45327;BME280;31062;49.678;24.560;2023-04-07T11:14:33;98049.59;;;2.31;82.16
45327;BME280;31062;49.678;24.560;2023-04-07T11:17:21;97984.31;;;1.82;82.36
45327;BME280;31062;49.678;24.560;2023-04-07T11:20:08;98076.16;;;2.49;82.16
45327;BME280;31062;49.678;24.560;2023-04-07T11:23:00;98159.34;;;3.12;81.94
45327;BME280;31062;49.678;24.560;2023-04-07T11:25:46;98173.47;;;3.16;81.82
45327;BME280;31062;49.678;24.560;2023-04-07T11:28:33;98143.56;;;2.92;81.70
45327;BME280;31062;49.678;24.560;2023-04-07T11:31:21;98167.78;;;3.01;81.76
45327;BME280;31062;49.678;24.560;2023-04-07T11:34:08;98174.00;;;3.14;81.74
45327;BME280;31062;49.678;24.560;2023-04-07T11:36:54;98057.56;;;2.16;81.73
45327;BME280;31062;49.678;24.560;2023-04-07T11:39:43;98169.47;;;3.17;81.71
45327;BME280;31062;49.678;24.560;2023-04-07T11:42:38;98178.75;;;3.27;82.04
45327;BME280;31062;49.678;24.560;2023-04-07T11:45:24;98187.59;;;3.33;81.98
45327;BME280;31062;49.678;24.560;2023-04-07T11:48:27;98190.25;;;3.39;82.00
45327;BME280;31062;49.678;24.560;2023-04-07T11:51:19;98148.63;;;3.14;81.45
45327;BME280;31062;49.678;24.560;2023-04-07T11:54:05;97997.38;;;1.89;81.31
45327;BME280;31062;49.678;24.560;2023-04-07T11:56:51;98189.91;;;3.42;81.30
45327;BME280;31062;49.678;24.560;2023-04-07T11:59:40;98208.69;;;3.51;81.19
45327;BME280;31062;49.678;24.560;2023-04-07T12:02:35;98200.66;;;3.53;81.18
45327;BME280;31062;49.678;24.560;2023-04-07T12:05:22;98236.72;;;3.57;80.54
45327;BME280;31062;49.678;24.560;2023-04-07T12:08:12;98014.88;;;2.26;80.42
45327;BME280;31062;49.678;24.560;2023-04-07T12:11:03;98189.28;;;3.23;80.89
45327;BME280;31062;49.678;24.560;2023-04-07T12:13:49;98166.94;;;3.19;80.75
45327;BME280;31062;49.678;24.560;2023-04-07T12:16:39;98167.88;;;3.35;80.29
45327;BME280;31062;49.678;24.560;2023-04-07T12:19:26;98209.47;;;3.73;80.28
45327;BME280;31062;49.678;24.560;2023-04-07T12:22:13;98206.22;;;3.61;80.45
45327;BME280;31062;49.678;24.560;2023-04-07T12:24:58;98220.66;;;3.75;80.21
45327;BME280;31062;49.678;24.560;2023-04-07T12:27:44;98226.91;;;3.75;80.00
45327;BME280;31062;49.678;24.560;2023-04-07T12:30:30;98211.81;;;3.68;79.95
45327;BME280;31062;49.678;24.560;2023-04-07T12:33:16;98166.50;;;3.41;79.92
45327;BME280;31062;49.678;24.560;2023-04-07T12:36:02;98223.28;;;3.80;80.20
45327;BME280;31062;49.678;24.560;2023-04-07T12:38:48;98155.13;;;3.37;80.49
45327;BME280;31062;49.678;24.560;2023-04-07T12:41:34;98232.88;;;3.87;80.39
45327;BME280;31062;49.678;24.560;2023-04-07T12:44:23;98175.56;;;3.49;79.94
45327;BME280;31062;49.678;24.560;2023-04-07T12:47:09;98235.81;;;3.89;79.73
45327;BME280;31062;49.678;24.560;2023-04-07T12:49:57;98244.78;;;3.89;79.59
45327;BME280;31062;49.678;24.560;2023-04-07T12:52:43;98231.19;;;3.84;79.85
45327;BME280;31062;49.678;24.560;2023-04-07T12:55:30;98240.25;;;3.92;79.64
45327;BME280;31062;49.678;24.560;2023-04-07T12:58:18;98171.56;;;3.50;80.03
45327;BME280;31062;49.678;24.560;2023-04-07T13:01:04;98220.44;;;3.86;80.05
45327;BME280;31062;49.678;24.560;2023-04-07T13:03:51;98261.97;;;4.03;80.07
45327;BME280;31062;49.678;24.560;2023-04-07T13:06:39;98229.91;;;3.98;79.27
45327;BME280;31062;49.678;24.560;2023-04-07T13:09:26;98246.00;;;4.15;79.47
45327;BME280;31062;49.678;24.560;2023-04-07T13:12:12;98103.41;;;3.20;78.89
45327;BME280;31062;49.678;24.560;2023-04-07T13:15:02;98246.84;;;4.23;79.30
45327;BME280;31062;49.678;24.560;2023-04-07T13:17:51;98235.72;;;4.28;79.24
45327;BME280;31062;49.678;24.560;2023-04-07T13:20:37;98238.66;;;4.30;78.83
45327;BME280;31062;49.678;24.560;2023-04-07T13:23:23;98244.75;;;4.36;79.06
45327;BME280;31062;49.678;24.560;2023-04-07T13:26:11;98206.84;;;4.14;78.16
45327;BME280;31062;49.678;24.560;2023-04-07T13:28:58;98247.19;;;4.40;77.49
45327;BME280;31062;49.678;24.560;2023-04-07T13:31:45;98290.88;;;4.51;77.45
45327;BME280;31062;49.678;24.560;2023-04-07T13:34:31;98272.38;;;4.51;77.18
45327;BME280;31062;49.678;24.560;2023-04-07T13:37:17;98260.97;;;4.47;76.94
45327;BME280;31062;49.678;24.560;2023-04-07T13:40:04;98200.38;;;3.91;76.33
45327;BME280;31062;49.678;24.560;2023-04-07T13:42:51;98071.28;;;3.21;76.62
45327;BME280;31062;49.678;24.560;2023-04-07T13:45:36;98255.31;;;4.45;76.11
45327;BME280;31062;49.678;24.560;2023-04-07T13:48:22;98079.38;;;3.26;76.65
45327;BME280;31062;49.678;24.560;2023-04-07T13:51:09;98294.34;;;4.51;76.14
45327;BME280;31062;49.678;24.560;2023-04-07T13:53:56;98245.41;;;4.29;75.93
45327;BME280;31062;49.678;24.560;2023-04-07T13:56:41;98278.69;;;4.60;75.80
45327;BME280;31062;49.678;24.560;2023-04-07T13:59:27;98213.47;;;4.19;75.83
45327;BME280;31062;49.678;24.560;2023-04-07T14:02:13;98108.03;;;3.39;76.10
45327;BME280;31062;49.678;24.560;2023-04-07T14:04:59;98275.31;;;4.53;76.17
45327;BME280;31062;49.678;24.560;2023-04-07T14:07:45;98208.66;;;4.11;75.93
45327;BME280;31062;49.678;24.560;2023-04-07T14:10:31;98249.28;;;4.13;75.63
45327;BME280;31062;49.678;24.560;2023-04-07T14:13:19;98201.28;;;4.06;75.37
45327;BME280;31062;49.678;24.560;2023-04-07T14:16:06;98312.44;;;4.68;75.60
45327;BME280;31062;49.678;24.560;2023-04-07T14:18:53;98269.16;;;4.61;75.50
45327;BME280;31062;49.678;24.560;2023-04-07T14:21:39;98297.41;;;4.82;74.57
45327;BME280;31062;49.678;24.560;2023-04-07T14:24:27;98212.50;;;4.29;74.29
45327;BME280;31062;49.678;24.560;2023-04-07T14:27:13;98292.69;;;4.90;73.17
45327;BME280;31062;49.678;24.560;2023-04-07T14:30:05;98306.50;;;4.98;72.57
45327;BME280;31062;49.678;24.560;2023-04-07T14:32:52;98319.72;;;4.99;72.80
45327;BME280;31062;49.678;24.560;2023-04-07T14:35:42;98315.72;;;5.00;71.95
45327;BME280;31062;49.678;24.560;2023-04-07T14:38:28;98314.97;;;5.00;71.98
45327;BME280;31062;49.678;24.560;2023-04-07T14:41:14;98236.09;;;4.45;72.49
45327;BME280;31062;49.678;24.560;2023-04-07T14:43:59;98105.56;;;3.48;72.34
45327;BME280;31062;49.678;24.560;2023-04-07T14:46:45;98321.00;;;4.98;71.82
45327;BME280;31062;49.678;24.560;2023-04-07T14:49:31;98328.50;;;4.98;72.61
45327;BME280;31062;49.678;24.560;2023-04-07T14:52:19;98332.19;;;5.00;72.28
45327;BME280;31062;49.678;24.560;2023-04-07T14:55:06;98330.97;;;4.88;71.37
45327;BME280;31062;49.678;24.560;2023-04-07T14:57:53;98355.44;;;4.99;71.83
45327;BME280;31062;49.678;24.560;2023-04-07T15:00:39;98339.69;;;5.00;71.92
45327;BME280;31062;49.678;24.560;2023-04-07T15:03:25;98303.88;;;4.71;71.73
45327;BME280;31062;49.678;24.560;2023-04-07T15:06:12;98321.66;;;4.70;72.34
45327;BME280;31062;49.678;24.560;2023-04-07T15:08:58;98342.75;;;4.96;72.06